This is the latest recevied weather packets stored in our database for station/object W6UA-13. If no packets are shown the sender has not sent any weather packets the latest 1 day(s).
| Time | Temp. | Humidity | Pressure | Rain* | Wind** | Luminosity | Snow |
|---|---|---|---|---|---|---|---|
| 1778022279 | 17.22° C | 66% | 1015.7 hPa | 0 mm | 3.13 m/s, 269° | 271 W/m² | - |
| 1778021379 | 18.33° C | 62% | 1015.9 hPa | 0 mm | 2.24 m/s, 219° | 432 W/m² | - |
| 1778020479 | 18.89° C | 61% | 1015.9 hPa | 0 mm | 2.24 m/s, 189° | 410 W/m² | - |
| 1778019579 | 18.89° C | 60% | 1015.9 hPa | 0 mm | 2.24 m/s, 205° | 399 W/m² | - |
| 1778018679 | 19.44° C | 56% | 1015.9 hPa | 0 mm | 1.34 m/s, 210° | 854 W/m² | - |
| 1778017780 | 18.33° C | 57% | 1016 hPa | 0 mm | 1.34 m/s, 341° | 383 W/m² | - |
| 1778016879 | 17.22° C | 65% | 1016.2 hPa | 0 mm | 3.13 m/s, 240° | 872 W/m² | - |
| 1778015980 | 16.67° C | 64% | 1016.1 hPa | 0 mm | 3.13 m/s, 240° | 388 W/m² | - |
| 1778015080 | 16.11° C | 66% | 1016.3 hPa | 0 mm | 4.02 m/s, 253° | 466 W/m² | - |
| 1778014180 | 16.67° C | 64% | 1016.3 hPa | 0 mm | 3.58 m/s, 255° | 394 W/m² | - |
| 1778013280 | 17.78° C | 59% | 1016.2 hPa | 0 mm | 3.13 m/s, 234° | 605 W/m² | - |
| 1778012380 | 16.67° C | 63% | 1016.2 hPa | 0 mm | 3.58 m/s, 214° | 457 W/m² | - |
| 1778011480 | 16.67° C | 64% | 1016.3 hPa | 0 mm | 2.68 m/s, 246° | 527 W/m² | - |
| 1778010580 | 16.67° C | 63% | 1016.3 hPa | 0 mm | 2.68 m/s, 217° | 517 W/m² | - |
| 1778009680 | 16.67° C | 64% | 1016.3 hPa | 0 mm | 4.02 m/s, 250° | 417 W/m² | - |
| 1778008780 | 17.78° C | 61% | 1016.3 hPa | 0 mm | 2.68 m/s, 285° | 483 W/m² | - |
| 1778007880 | 18.33° C | 61% | 1016.3 hPa | 0 mm | 2.24 m/s, 186° | 919 W/m² | - |
| 1778006980 | 17.78° C | 64% | 1016 hPa | 0 mm | 2.24 m/s, 143° | 858 W/m² | - |
| 1778006080 | 17.22° C | 64% | 1016.2 hPa | 0 mm | 2.24 m/s, 209° | 844 W/m² | - |
| 1778005180 | 17.22° C | 65% | 1016 hPa | 0 mm | 1.79 m/s, 179° | 837 W/m² | - |
| 1778004280 | 17.22° C | 66% | 1015.9 hPa | 0 mm | 1.79 m/s, 180° | 766 W/m² | - |
| 1778003380 | 16.67° C | 66% | 1015.9 hPa | 0 mm | 1.79 m/s, 170° | 784 W/m² | - |
| 1778002480 | 17.22° C | 66% | 1015.7 hPa | 0 mm | 1.79 m/s, 214° | 717 W/m² | - |
| 1778001580 | 17.22° C | 66% | 1015.4 hPa | 0 mm | 1.34 m/s, 179° | 682 W/m² | - |
| 1778000680 | 16.67° C | 65% | 1015.5 hPa | 0 mm | 0.89 m/s, 216° | 659 W/m² | - |
* Rain latest hour (hover to see other rain measurements)
** Current wind speed in m/s (hover to see current wind gust speed)